createdAt,value
2022-10-10T00:01:36.558Z,74.39
2022-10-10T00:04:05.823Z,74.28
2022-10-10T00:06:33.536Z,74.47
2022-10-10T00:09:01.854Z,74.97
2022-10-10T00:11:29.138Z,74.05
2022-10-10T00:13:56.124Z,74.51
2022-10-10T00:16:23.219Z,75.10
2022-10-10T00:18:50.355Z,74.96
2022-10-10T00:21:17.944Z,75.30
2022-10-10T00:23:44.880Z,75.32
2022-10-10T00:26:16.302Z,76.64
2022-10-10T00:28:45.748Z,75.93
2022-10-10T00:31:12.713Z,75.61
2022-10-10T00:33:39.932Z,75.44
2022-10-10T00:36:07.630Z,75.81
2022-10-10T00:38:35.380Z,76.16
2022-10-10T00:41:03.065Z,75.05
2022-10-10T00:43:30.144Z,74.98
2022-10-10T00:45:57.501Z,74.69
2022-10-10T00:48:39.898Z,74.57
2022-10-10T00:51:11.915Z,74.93
2022-10-10T00:54:05.873Z,74.29
2022-10-10T00:56:45.865Z,74.21
2022-10-10T00:59:13.017Z,74.24
2022-10-10T01:01:41.415Z,75.77
2022-10-10T01:04:32.592Z,74.96
2022-10-10T01:07:00.591Z,74.97
2022-10-10T01:09:29.264Z,74.93
2022-10-10T01:12:08.853Z,78.08
2022-10-10T01:14:47.881Z,78.53
2022-10-10T01:17:14.743Z,77.20
2022-10-10T01:20:03.313Z,76.66
2022-10-10T01:22:57.014Z,76.98
2022-10-10T01:25:51.322Z,77.17
2022-10-10T01:28:43.237Z,76.94
2022-10-10T01:31:14.043Z,76.50
2022-10-10T01:33:53.042Z,76.20
2022-10-10T01:36:33.135Z,75.71
2022-10-10T01:39:27.862Z,75.59
2022-10-10T01:42:08.373Z,75.53
2022-10-10T01:44:35.332Z,75.87
2022-10-10T01:47:02.326Z,75.75
2022-10-10T01:49:33.076Z,76.07
2022-10-10T01:52:32.525Z,76.25
2022-10-10T01:55:15.118Z,76.79
2022-10-10T01:57:52.161Z,76.54
2022-10-10T02:00:19.827Z,75.89
2022-10-10T02:03:02.824Z,75.67
2022-10-10T02:05:49.711Z,75.74
2022-10-10T02:08:22.690Z,76.35
2022-10-10T02:10:52.997Z,75.86
2022-10-10T02:13:24.217Z,75.91
2022-10-10T02:15:58.308Z,76.32
2022-10-10T02:18:29.352Z,75.92
2022-10-10T02:20:56.529Z,75.50
2022-10-10T02:23:24.012Z,75.46
2022-10-10T02:25:54.728Z,76.02
2022-10-10T02:28:30.196Z,76.56
2022-10-10T02:31:01.481Z,76.71
2022-10-10T02:33:41.979Z,76.24
2022-10-10T02:36:10.073Z,75.49
2022-10-10T02:38:38.316Z,76.84
2022-10-10T02:41:07.502Z,76.18
2022-10-10T02:43:35.653Z,78.57
2022-10-10T02:46:06.479Z,78.77
2022-10-10T02:48:33.403Z,78.56
2022-10-10T02:51:00.521Z,78.28
2022-10-10T02:53:28.328Z,78.68
2022-10-10T02:55:55.274Z,78.84
2022-10-10T02:58:22.256Z,79.81
2022-10-10T03:00:49.316Z,80.17
2022-10-10T03:03:16.228Z,80.08
2022-10-10T03:05:43.119Z,80.06
2022-10-10T03:08:11.863Z,80.16
2022-10-10T03:10:39.393Z,79.64
2022-10-10T03:13:06.436Z,79.33
2022-10-10T03:15:33.361Z,80.31
2022-10-10T03:18:00.303Z,80.23
2022-10-10T03:20:27.255Z,80.55
2022-10-10T03:22:54.188Z,80.75
2022-10-10T03:25:21.105Z,80.96
2022-10-10T03:27:48.550Z,80.77
2022-10-10T03:30:15.894Z,80.07
2022-10-10T03:32:42.823Z,79.75
2022-10-10T03:35:11.174Z,78.79
2022-10-10T03:37:38.092Z,79.14
2022-10-10T03:40:05.362Z,78.74
2022-10-10T03:42:32.300Z,78.42
2022-10-10T03:44:59.245Z,78.44
2022-10-10T03:47:26.246Z,77.85
2022-10-10T03:49:53.067Z,77.83
2022-10-10T03:52:20.018Z,78.18
2022-10-10T03:54:47.297Z,78.09
2022-10-10T03:57:14.257Z,77.72
2022-10-10T03:59:41.148Z,77.45
2022-10-10T04:02:08.550Z,77.64
2022-10-10T04:04:35.709Z,77.70
2022-10-10T04:07:02.686Z,77.54
2022-10-10T04:09:30.098Z,77.58
2022-10-10T04:11:57.286Z,77.80
2022-10-10T04:14:24.389Z,77.80
2022-10-10T04:16:51.354Z,78.16
2022-10-10T04:19:18.565Z,77.46
2022-10-10T04:21:45.533Z,78.00
2022-10-10T04:24:12.654Z,77.64
2022-10-10T04:26:39.618Z,77.27
2022-10-10T04:29:06.607Z,77.32
2022-10-10T04:31:33.994Z,77.40
2022-10-10T04:34:00.933Z,77.05
2022-10-10T04:36:28.169Z,77.73
2022-10-10T04:39:05.439Z,77.65
2022-10-10T04:41:32.405Z,78.26
2022-10-10T04:43:59.349Z,78.71
2022-10-10T04:46:26.399Z,78.28
2022-10-10T04:48:53.351Z,78.30
2022-10-10T04:51:20.228Z,77.68
2022-10-10T04:53:50.415Z,78.35
2022-10-10T04:56:17.805Z,77.54
2022-10-10T04:58:44.865Z,77.45
2022-10-10T05:01:11.850Z,77.89
2022-10-10T05:03:38.818Z,77.51
2022-10-10T05:06:06.314Z,77.16
2022-10-10T05:08:33.521Z,77.74
2022-10-10T05:11:00.775Z,77.80
2022-10-10T05:13:27.961Z,77.68
2022-10-10T05:15:54.915Z,78.15
2022-10-10T05:18:22.583Z,78.46
2022-10-10T05:20:49.435Z,78.00
2022-10-10T05:23:16.951Z,77.85
2022-10-10T05:25:45.703Z,78.31
2022-10-10T05:28:12.865Z,77.45
2022-10-10T05:30:39.872Z,78.08
2022-10-10T05:33:06.909Z,77.96
2022-10-10T05:35:33.929Z,78.38
2022-10-10T05:38:01.082Z,78.27
2022-10-10T05:40:28.506Z,77.63
2022-10-10T05:42:55.541Z,77.41
2022-10-10T05:45:22.548Z,78.27
2022-10-10T05:47:49.553Z,77.54
2022-10-10T05:50:30.028Z,77.42
2022-10-10T05:52:57.419Z,78.29
2022-10-10T05:55:24.615Z,77.92
2022-10-10T05:57:51.593Z,78.33
2022-10-10T06:00:18.818Z,78.16
2022-10-10T06:02:46.278Z,78.13
2022-10-10T06:05:13.214Z,78.24
2022-10-10T06:08:02.432Z,78.27
2022-10-10T06:10:27.133Z,77.95
2022-10-10T06:12:54.306Z,78.78
2022-10-10T06:15:21.643Z,78.25
2022-10-10T06:17:48.593Z,78.34
2022-10-10T06:20:15.779Z,77.98
2022-10-10T06:22:42.690Z,78.30
2022-10-10T06:25:29.042Z,78.63
2022-10-10T06:27:57.186Z,78.38
2022-10-10T06:30:24.289Z,78.26
2022-10-10T06:32:55.806Z,78.30
2022-10-10T06:35:23.679Z,78.53
2022-10-10T06:37:50.571Z,78.01
2022-10-10T06:40:17.981Z,78.15
2022-10-10T06:42:44.937Z,78.18
2022-10-10T06:45:11.869Z,78.18
2022-10-10T06:47:40.107Z,78.30
2022-10-10T06:50:07.295Z,78.27
2022-10-10T06:52:34.274Z,78.02
2022-10-10T06:55:01.189Z,77.56
2022-10-10T06:57:28.757Z,77.27
2022-10-10T06:59:55.798Z,77.26
2022-10-10T07:02:23.849Z,77.12
2022-10-10T07:04:51.212Z,76.84
2022-10-10T07:07:18.248Z,76.75
2022-10-10T07:09:45.178Z,76.42
2022-10-10T07:12:12.508Z,75.81
2022-10-10T07:14:39.468Z,75.79
2022-10-10T07:17:06.382Z,76.75
2022-10-10T07:19:33.450Z,75.69
2022-10-10T07:22:00.407Z,76.43
2022-10-10T07:24:27.364Z,76.80
2022-10-10T07:27:03.479Z,76.23
2022-10-10T07:29:33.421Z,76.73
2022-10-10T07:32:00.588Z,75.99
2022-10-10T07:34:27.795Z,75.84
2022-10-10T07:36:54.748Z,75.77
2022-10-10T07:39:25.559Z,75.67
2022-10-10T07:41:52.753Z,76.42
2022-10-10T07:44:20.330Z,76.38
2022-10-10T07:46:47.787Z,75.79
2022-10-10T07:49:14.669Z,75.47
2022-10-10T07:51:41.849Z,75.24
2022-10-10T07:54:10.757Z,75.92
2022-10-10T07:56:37.753Z,75.55
2022-10-10T07:59:04.726Z,75.64
2022-10-10T08:01:31.750Z,75.58
2022-10-10T08:03:58.984Z,75.63
2022-10-10T08:06:26.161Z,74.99
2022-10-10T08:08:53.238Z,75.21
2022-10-10T08:11:22.169Z,74.90
2022-10-10T08:13:50.255Z,74.81
2022-10-10T08:16:18.173Z,74.04
2022-10-10T08:18:45.373Z,74.31
2022-10-10T08:21:14.718Z,74.16
2022-10-10T08:23:42.170Z,73.41
2022-10-10T08:26:11.144Z,73.60
2022-10-10T08:28:38.946Z,72.89
2022-10-10T08:31:08.138Z,72.77
2022-10-10T08:33:36.084Z,72.31
2022-10-10T08:36:14.927Z,71.74
2022-10-10T08:38:42.589Z,70.92
2022-10-10T08:41:24.684Z,70.61
2022-10-10T08:43:57.074Z,70.30
2022-10-10T08:47:15.623Z,69.85
2022-10-10T08:50:07.150Z,69.66
2022-10-10T08:52:53.987Z,69.02
2022-10-10T08:55:44.216Z,69.07
2022-10-10T08:58:24.499Z,68.47
2022-10-10T09:00:57.265Z,68.34
2022-10-10T09:03:42.502Z,67.01
2022-10-10T09:06:37.495Z,67.35
2022-10-10T09:09:10.587Z,67.07
2022-10-10T09:12:07.096Z,66.54
2022-10-10T09:14:45.074Z,66.30
2022-10-10T09:17:34.924Z,66.22
2022-10-10T09:20:07.996Z,66.51
2022-10-10T09:22:52.292Z,65.69
2022-10-10T09:25:33.089Z,65.35
2022-10-10T09:28:19.639Z,65.72
2022-10-10T09:30:53.067Z,65.47
2022-10-10T09:33:28.767Z,64.88
2022-10-10T09:35:59.049Z,64.53
2022-10-10T09:38:37.898Z,64.73
2022-10-10T09:41:39.690Z,64.65
2022-10-10T09:44:11.852Z,64.79
2022-10-10T09:46:39.064Z,63.78
2022-10-10T09:49:06.332Z,63.81
2022-10-10T09:51:34.340Z,63.79
2022-10-10T09:54:01.736Z,63.70
2022-10-10T09:56:35.235Z,63.31
2022-10-10T09:59:02.280Z,60.99
2022-10-10T10:01:33.264Z,62.18
2022-10-10T10:04:30.924Z,61.69
2022-10-10T10:07:19.587Z,62.21
2022-10-10T10:09:59.534Z,62.35
2022-10-10T10:12:37.587Z,60.91
2022-10-10T10:15:07.580Z,60.07
2022-10-10T10:17:34.504Z,60.37
2022-10-10T10:20:01.479Z,58.76
2022-10-10T10:22:54.719Z,56.51
2022-10-10T10:25:39.134Z,58.23
2022-10-10T10:28:12.241Z,58.57
2022-10-10T10:30:40.557Z,57.10
2022-10-10T10:33:33.557Z,56.54
2022-10-10T10:36:19.456Z,55.90
2022-10-10T10:39:05.177Z,56.97
2022-10-10T10:41:38.237Z,57.80
2022-10-10T10:44:05.135Z,57.00
2022-10-10T10:46:38.132Z,56.26
2022-10-10T10:49:04.998Z,56.90
2022-10-10T10:51:41.192Z,56.43
2022-10-10T10:54:25.511Z,57.76
2022-10-10T10:57:28.817Z,56.70
2022-10-10T11:00:22.275Z,57.79
2022-10-10T11:03:14.865Z,58.02
2022-10-10T11:06:10.592Z,57.12
2022-10-10T11:09:45.050Z,56.79
2022-10-10T11:12:14.166Z,56.39
2022-10-10T11:14:51.407Z,56.72
2022-10-10T11:17:26.909Z,57.20
2022-10-10T11:20:17.198Z,57.20
2022-10-10T11:22:52.519Z,56.53
2022-10-10T11:25:47.827Z,56.58
2022-10-10T11:28:21.386Z,56.82
2022-10-10T11:30:58.350Z,57.71
2022-10-10T11:33:39.124Z,55.87
2022-10-10T11:36:16.144Z,57.04
2022-10-10T11:38:54.952Z,56.17
2022-10-10T11:41:27.435Z,55.83
2022-10-10T11:44:04.989Z,56.20
2022-10-10T11:46:54.783Z,56.07
2022-10-10T11:49:37.132Z,56.24
2022-10-10T11:52:35.133Z,56.25
2022-10-10T11:55:24.745Z,57.21
2022-10-10T11:58:39.339Z,56.74
2022-10-10T12:01:19.402Z,57.10
2022-10-10T12:03:46.414Z,57.93
2022-10-10T12:06:28.206Z,57.20
2022-10-10T12:09:04.598Z,56.84
2022-10-10T12:11:37.456Z,56.57
2022-10-10T12:14:09.408Z,56.22
2022-10-10T12:16:38.114Z,57.23
2022-10-10T12:19:09.316Z,56.60
2022-10-10T12:21:59.743Z,54.14
2022-10-10T12:24:29.866Z,56.14
2022-10-10T12:26:56.801Z,55.31
2022-10-10T12:30:08.733Z,54.83
2022-10-10T12:32:46.107Z,54.27
2022-10-10T12:35:42.363Z,53.31
2022-10-10T12:38:11.476Z,54.43
2022-10-10T12:41:05.205Z,52.30
2022-10-10T12:43:48.417Z,53.34
2022-10-10T12:46:21.073Z,54.10
2022-10-10T12:49:16.951Z,53.76
2022-10-10T12:51:44.943Z,54.44
2022-10-10T12:54:28.127Z,52.53
2022-10-10T12:57:07.949Z,51.92
2022-10-10T12:59:37.227Z,53.00
2022-10-10T13:02:24.693Z,53.54
2022-10-10T13:04:56.421Z,52.86
2022-10-10T13:07:24.998Z,52.02
2022-10-10T13:09:55.054Z,50.60
2022-10-10T13:12:27.908Z,50.89
2022-10-10T13:14:55.818Z,51.43
2022-10-10T13:17:24.548Z,51.64
2022-10-10T13:19:52.973Z,52.83
2022-10-10T13:22:21.044Z,51.98
2022-10-10T13:24:49.536Z,49.77
2022-10-10T13:27:26.802Z,47.42
2022-10-10T13:29:55.461Z,49.83
2022-10-10T13:32:29.577Z,49.43
2022-10-10T13:35:06.613Z,50.13
2022-10-10T13:37:34.535Z,51.00
2022-10-10T13:40:01.974Z,50.67
2022-10-10T13:42:36.170Z,48.58
2022-10-10T13:45:29.204Z,49.14
2022-10-10T13:48:03.629Z,48.76
2022-10-10T13:50:53.409Z,50.18
2022-10-10T13:53:26.865Z,50.87
2022-10-10T13:56:02.706Z,50.32
2022-10-10T13:58:52.796Z,49.54
2022-10-10T14:01:34.992Z,49.82
2022-10-10T14:04:15.558Z,50.84
2022-10-10T14:06:59.746Z,49.99
2022-10-10T14:09:41.824Z,50.24
2022-10-10T14:12:17.574Z,51.16
2022-10-10T14:14:48.307Z,51.28
2022-10-10T14:17:16.204Z,50.82
2022-10-10T14:19:45.408Z,50.73
2022-10-10T14:22:12.526Z,51.59
2022-10-10T14:24:39.508Z,52.33
2022-10-10T14:27:20.722Z,51.77
2022-10-10T14:29:48.159Z,52.13
2022-10-10T14:32:16.181Z,51.89
2022-10-10T14:34:43.448Z,51.71
2022-10-10T14:37:29.382Z,50.81
2022-10-10T14:39:56.819Z,52.63
2022-10-10T14:42:25.610Z,50.92
2022-10-10T14:44:52.773Z,51.83
2022-10-10T14:47:22.350Z,51.86
2022-10-10T14:49:49.717Z,52.17
2022-10-10T14:52:16.707Z,53.51
2022-10-10T14:54:43.700Z,53.13
2022-10-10T14:57:13.488Z,53.57
2022-10-10T14:59:48.426Z,53.69
2022-10-10T15:02:21.585Z,54.21
2022-10-10T15:04:49.274Z,54.40
2022-10-10T15:07:16.718Z,53.94
2022-10-10T15:10:27.477Z,54.97
2022-10-10T15:12:32.985Z,55.27
2022-10-10T15:14:59.930Z,56.01
2022-10-10T15:17:27.594Z,56.24
2022-10-10T15:19:54.534Z,56.92
2022-10-10T15:22:21.484Z,57.25
2022-10-10T15:24:48.460Z,57.47
2022-10-10T15:27:15.484Z,57.94
2022-10-10T15:29:42.488Z,58.49
2022-10-10T15:32:09.908Z,58.60
2022-10-10T15:34:37.012Z,59.00
2022-10-10T15:37:04.490Z,59.15
2022-10-10T15:39:31.766Z,59.59
2022-10-10T15:42:06.998Z,59.75
2022-10-10T15:44:36.906Z,60.03
2022-10-10T15:47:04.032Z,60.32
2022-10-10T15:49:30.977Z,60.50
2022-10-10T15:51:57.935Z,60.80
2022-10-10T15:54:24.933Z,60.79
2022-10-10T15:56:51.960Z,61.22
2022-10-10T16:01:45.762Z,61.86
2022-10-10T16:04:12.876Z,62.36
2022-10-10T16:06:39.796Z,62.56
2022-10-10T16:09:27.558Z,62.21
2022-10-10T16:11:53.787Z,62.67
2022-10-10T16:14:20.732Z,62.88
2022-10-10T16:16:47.726Z,63.41
2022-10-10T16:19:14.903Z,63.12
2022-10-10T16:21:42.003Z,64.09
2022-10-10T16:24:10.163Z,64.14
2022-10-10T16:26:38.338Z,64.76
2022-10-10T16:29:07.206Z,64.91
2022-10-10T16:31:39.427Z,64.54
2022-10-10T16:34:07.691Z,65.39
2022-10-10T16:36:37.392Z,65.07
2022-10-10T16:39:05.378Z,65.07
2022-10-10T16:41:49.539Z,65.24
2022-10-10T16:44:17.891Z,65.49
2022-10-10T16:46:45.122Z,65.80
2022-10-10T16:49:20.957Z,66.12
2022-10-10T16:51:48.451Z,65.83
2022-10-10T16:54:15.947Z,66.27
2022-10-10T16:56:42.895Z,66.10
2022-10-10T16:59:09.841Z,66.10
2022-10-10T17:01:37.060Z,66.22
2022-10-10T17:04:04.747Z,66.88
2022-10-10T17:06:38.048Z,66.78
2022-10-10T17:09:07.695Z,66.71
2022-10-10T17:11:35.332Z,65.82
2022-10-10T17:14:02.518Z,66.43
2022-10-10T17:19:17.749Z,66.35
2022-10-10T17:21:44.667Z,66.54
2022-10-10T17:24:11.649Z,66.79
2022-10-10T17:26:38.687Z,66.83
2022-10-10T17:29:05.859Z,66.72
2022-10-10T17:31:33.033Z,67.33
2022-10-10T17:34:00.225Z,67.21
2022-10-10T17:36:28.447Z,67.02
2022-10-10T17:39:02.310Z,67.37
2022-10-10T17:41:29.798Z,67.36
2022-10-10T17:43:56.970Z,67.69
2022-10-10T17:46:36.585Z,67.91
2022-10-10T17:49:06.845Z,67.46
2022-10-10T17:51:35.569Z,68.09
2022-10-10T17:54:03.726Z,68.08
2022-10-10T17:56:31.706Z,68.11
2022-10-10T17:59:01.783Z,67.71
2022-10-10T18:01:31.118Z,68.07
2022-10-10T18:03:58.860Z,68.32
2022-10-10T18:06:26.584Z,68.52
2022-10-10T18:08:54.511Z,68.37
2022-10-10T18:11:24.374Z,68.49
2022-10-10T18:13:52.415Z,68.74
2022-10-10T18:16:22.833Z,68.88
2022-10-10T18:18:51.910Z,68.82
2022-10-10T18:21:21.535Z,68.78
2022-10-10T18:23:49.123Z,68.92
2022-10-10T18:26:19.601Z,68.42
2022-10-10T18:28:47.097Z,68.89
2022-10-10T18:31:20.193Z,68.86
2022-10-10T18:33:47.698Z,69.16
2022-10-10T18:36:17.624Z,69.08
2022-10-10T18:38:44.563Z,69.08
2022-10-10T18:41:18.480Z,68.39
2022-10-10T18:43:46.491Z,69.41
2022-10-10T18:46:16.207Z,69.65
2022-10-10T18:48:44.086Z,69.52
2022-10-10T18:51:18.907Z,69.38
2022-10-10T18:53:47.081Z,69.34
2022-10-10T18:56:17.071Z,69.60
2022-10-10T18:58:43.994Z,69.58
2022-10-10T19:01:12.862Z,69.85
2022-10-10T19:03:40.990Z,69.58
2022-10-10T19:06:11.037Z,69.41
2022-10-10T19:08:38.191Z,69.25
2022-10-10T19:11:07.331Z,69.60
2022-10-10T19:13:35.167Z,69.68
2022-10-10T19:16:06.933Z,69.84
2022-10-10T19:18:34.362Z,69.63
2022-10-10T19:21:04.092Z,70.01
2022-10-10T19:23:32.501Z,69.93
2022-10-10T19:26:05.198Z,70.23
2022-10-10T19:28:32.961Z,70.05
2022-10-10T19:31:06.714Z,70.17
2022-10-10T19:33:34.627Z,70.05
2022-10-10T19:36:04.477Z,70.35
2022-10-10T19:38:34.473Z,70.30
2022-10-10T19:41:01.802Z,70.40
2022-10-10T19:43:29.408Z,70.63
2022-10-10T19:45:56.555Z,70.48
2022-10-10T19:48:25.149Z,70.19
2022-10-10T19:50:54.194Z,70.34
2022-10-10T19:53:21.297Z,70.65
2022-10-10T19:56:00.063Z,70.46
2022-10-10T19:58:28.090Z,70.80
2022-10-10T20:00:55.347Z,70.87
2022-10-10T20:03:22.386Z,71.02
2022-10-10T20:05:49.734Z,70.68
2022-10-10T20:08:16.861Z,70.78
2022-10-10T20:10:44.764Z,71.02
2022-10-10T20:13:15.207Z,71.24
2022-10-10T20:15:44.396Z,71.78
2022-10-10T20:18:12.877Z,71.67
2022-10-10T20:20:41.991Z,71.22
2022-10-10T20:23:09.683Z,71.72
2022-10-10T20:25:41.710Z,71.74
2022-10-10T20:28:09.557Z,71.91
2022-10-10T20:30:40.590Z,72.30
2022-10-10T20:33:07.553Z,72.03
2022-10-10T20:35:35.213Z,71.85
2022-10-10T20:38:03.414Z,71.72
2022-10-10T20:40:30.862Z,71.64
2022-10-10T20:42:58.027Z,71.92
2022-10-10T20:45:25.030Z,71.80
2022-10-10T20:47:52.007Z,71.92
2022-10-10T20:50:18.996Z,71.83
2022-10-10T20:52:45.912Z,72.11
2022-10-10T20:55:12.896Z,72.00
2022-10-10T20:57:39.918Z,72.02
2022-10-10T21:00:07.580Z,72.34
2022-10-10T21:02:35.228Z,72.44
2022-10-10T21:05:02.232Z,71.93
2022-10-10T21:07:29.711Z,72.54
2022-10-10T21:09:56.941Z,72.43
2022-10-10T21:12:23.906Z,71.98
2022-10-10T21:14:50.853Z,71.98
2022-10-10T21:17:17.769Z,72.29
2022-10-10T21:19:44.946Z,72.26
2022-10-10T21:22:12.026Z,71.21
2022-10-10T21:24:39.711Z,72.08
2022-10-10T21:27:06.720Z,72.25
2022-10-10T21:29:33.846Z,72.33
2022-10-10T21:32:02.387Z,72.16
2022-10-10T21:34:29.312Z,72.32
2022-10-10T21:36:56.886Z,72.14
2022-10-10T21:39:24.873Z,72.32
2022-10-10T21:41:51.812Z,72.12
2022-10-10T21:44:18.659Z,72.27
2022-10-10T21:46:45.705Z,71.97
2022-10-10T21:49:14.610Z,72.73
2022-10-10T21:51:43.587Z,72.32
2022-10-10T21:54:10.811Z,72.26
2022-10-10T21:56:38.813Z,72.41
2022-10-10T21:59:06.160Z,72.56
2022-10-10T22:01:33.511Z,72.50
2022-10-10T22:04:02.109Z,72.47
2022-10-10T22:06:29.511Z,72.73
2022-10-10T22:08:58.752Z,72.37
2022-10-10T22:11:27.246Z,72.46
2022-10-10T22:13:54.204Z,72.52
2022-10-10T22:16:21.333Z,72.50
2022-10-10T22:18:48.517Z,72.58
2022-10-10T22:21:17.422Z,72.68
2022-10-10T22:23:45.440Z,72.72
2022-10-10T22:26:14.682Z,72.98
2022-10-10T22:28:42.279Z,72.62
2022-10-10T22:31:11.209Z,72.83
2022-10-10T22:33:38.421Z,72.64
2022-10-10T22:36:07.173Z,72.30
2022-10-10T22:38:38.794Z,72.41
2022-10-10T22:41:05.732Z,72.11
2022-10-10T22:43:33.194Z,72.44
2022-10-10T22:46:00.287Z,72.23
2022-10-10T22:48:27.781Z,72.27
2022-10-10T22:51:13.499Z,72.08
2022-10-10T22:53:41.438Z,72.09
2022-10-10T22:56:09.895Z,72.27
2022-10-10T22:58:37.589Z,72.35
2022-10-10T23:01:06.321Z,72.09
2022-10-10T23:03:33.393Z,71.84
2022-10-10T23:06:00.432Z,72.14
2022-10-10T23:08:27.443Z,72.54
2022-10-10T23:10:54.333Z,71.75
2022-10-10T23:13:21.683Z,72.59
2022-10-10T23:15:48.667Z,72.35
2022-10-10T23:18:15.635Z,72.46
2022-10-10T23:20:42.598Z,72.56
2022-10-10T23:23:09.750Z,72.63
2022-10-10T23:25:41.484Z,72.84
2022-10-10T23:28:09.145Z,72.69
2022-10-10T23:30:39.904Z,72.51
2022-10-10T23:33:07.089Z,72.63
2022-10-10T23:35:34.929Z,72.50
2022-10-10T23:38:02.160Z,72.39
2022-10-10T23:40:29.336Z,72.58
2022-10-10T23:42:56.338Z,72.47
2022-10-10T23:45:23.282Z,72.63
2022-10-10T23:47:50.309Z,72.74
2022-10-10T23:50:17.392Z,72.24
2022-10-10T23:52:44.331Z,72.40
2022-10-10T23:55:11.260Z,72.36
2022-10-10T23:57:38.251Z,72.65
